This is the latest recevied weather packets stored in our database for station/object KQ7A. If no packets are shown the sender has not sent any weather packets the latest 10 day(s).
| Time | Temp. | Humidity | Pressure | Rain* | Wind** | Luminosity | Snow |
|---|---|---|---|---|---|---|---|
| 1777910881 | 11.67° C | 68% | 1012.5 hPa | 0 mm | - | 243 W/m² | - |
| 1777910577 | 11.67° C | 71% | 1012.6 hPa | 0 mm | - | 249 W/m² | - |
| 1777909971 | 11.11° C | 72% | 1012.6 hPa | 0 mm | - | 207 W/m² | - |
| 1777909365 | 11.11° C | 71% | 1012.6 hPa | 0 mm | - | 186 W/m² | - |
| 1777909063 | 11.67° C | 71% | 1012.5 hPa | 0 mm | - | 196 W/m² | - |
| 1777908760 | 12.22° C | 71% | 1012.6 hPa | 0 mm | - | 293 W/m² | - |
| 1777908458 | 11.11° C | 77% | 1012.5 hPa | 0 mm | - | 276 W/m² | - |
| 1777908154 | 11.11° C | 76% | 1012.4 hPa | 0 mm | - | 253 W/m² | - |
| 1777907850 | 11.11° C | 72% | 1012.8 hPa | 0 mm | - | 255 W/m² | - |
| 1777907546 | 10.56° C | 77% | 1012.8 hPa | 0 mm | - | 337 W/m² | - |
| 1777907242 | 10° C | 82% | 1012.6 hPa | 0 mm | - | 239 W/m² | - |
| 1777906939 | 10° C | 81% | 1012.5 hPa | 0 mm | - | 188 W/m² | - |
| 1777906637 | 9.44° C | 83% | 1012.5 hPa | 0 mm | - | 166 W/m² | - |
| 1777905726 | 8.89° C | 85% | 1012.9 hPa | 0 mm | - | 108 W/m² | - |
| 1777905423 | 8.89° C | 84% | 1012.6 hPa | 0 mm | - | 104 W/m² | - |
| 1777905121 | 8.33° C | 84% | 1012.9 hPa | 0 mm | - | 59 W/m² | - |
| 1777904515 | 7.78° C | 90% | 1013 hPa | 0 mm | - | 50 W/m² | - |
| 1777903908 | 7.78° C | 89% | 1013 hPa | 0 mm | - | 25 W/m² | - |
| 1777903605 | 7.78° C | 89% | 1013 hPa | 0 mm | - | 17 W/m² | - |
| 1777902998 | 6.67° C | 90% | 1012.9 hPa | 0 mm | - | 18 W/m² | - |
| 1777902088 | 6.67° C | 91% | 1012.4 hPa | 0 mm | - | 10 W/m² | - |
| 1777901787 | 6.67° C | 91% | 1012.5 hPa | 0 mm | - | 12 W/m² | - |
| 1777901181 | 6.11° C | 91% | 1012.4 hPa | 0 mm | - | 11 W/m² | - |
| 1777900878 | 6.67° C | 91% | 1012.6 hPa | 0 mm | - | 10 W/m² | - |
| 1777900576 | 6.67° C | 91% | 1012.5 hPa | 0 mm | - | 8 W/m² | - |
* Rain latest hour (hover to see other rain measurements)
** Current wind speed in m/s (hover to see current wind gust speed)